createdAt,value
2023-02-20T00:00:53.636Z,7.90
2023-02-20T00:03:21.076Z,7.10
2023-02-20T00:05:48.877Z,7.47
2023-02-20T00:08:16.226Z,8.23
2023-02-20T00:10:43.644Z,7.40
2023-02-20T00:13:11.095Z,7.77
2023-02-20T00:15:38.607Z,8.47
2023-02-20T00:18:07.308Z,7.63
2023-02-20T00:20:36.487Z,7.07
2023-02-20T00:23:04.023Z,8.20
2023-02-20T00:25:31.362Z,7.73
2023-02-20T00:27:59.311Z,7.97
2023-02-20T00:30:27.175Z,7.67
2023-02-20T00:32:56.036Z,7.97
2023-02-20T00:35:24.871Z,7.37
2023-02-20T00:37:53.664Z,7.80
2023-02-20T00:40:23.976Z,7.43
2023-02-20T00:42:51.765Z,8.10
2023-02-20T00:45:19.616Z,8.00
2023-02-20T00:47:47.196Z,7.50
2023-02-20T00:50:16.658Z,7.90
2023-02-20T00:52:44.127Z,8.10
2023-02-20T00:55:12.200Z,8.53
2023-02-20T00:57:39.866Z,7.87
2023-02-20T01:00:11.127Z,7.47
2023-02-20T01:02:38.744Z,7.53
2023-02-20T01:05:06.400Z,7.57
2023-02-20T01:07:33.744Z,7.43
2023-02-20T01:10:01.103Z,8.37
2023-02-20T01:12:28.540Z,7.37
2023-02-20T01:14:55.892Z,7.37
2023-02-20T01:17:23.391Z,7.10
2023-02-20T01:19:50.805Z,7.53
2023-02-20T01:22:18.256Z,7.07
2023-02-20T01:24:45.688Z,7.97
2023-02-20T01:27:13.119Z,8.10
2023-02-20T01:29:40.762Z,7.57
2023-02-20T01:32:11.467Z,6.83
2023-02-20T01:34:39.426Z,7.77
2023-02-20T01:37:07.228Z,7.33
2023-02-20T01:39:34.726Z,6.97
2023-02-20T01:42:05.487Z,7.07
2023-02-20T01:44:35.741Z,7.53
2023-02-20T01:47:07.997Z,6.93
2023-02-20T01:49:43.127Z,7.77
2023-02-20T01:52:20.422Z,7.47
2023-02-20T01:54:57.248Z,6.60
2023-02-20T01:57:28.413Z,6.17
2023-02-20T02:00:00.722Z,6.87
2023-02-20T02:02:33.424Z,7.63
2023-02-20T02:05:02.193Z,7.40
2023-02-20T02:07:30.732Z,6.90
2023-02-20T02:10:04.604Z,7.50
2023-02-20T02:12:32.340Z,7.07
2023-02-20T02:14:59.813Z,6.73
2023-02-20T02:17:59.549Z,7.83
2023-02-20T02:20:39.005Z,7.37
2023-02-20T02:23:18.242Z,7.33
2023-02-20T02:26:14.773Z,7.27
2023-02-20T02:28:57.199Z,6.80
2023-02-20T02:32:01.647Z,7.33
2023-02-20T02:34:56.874Z,8.07
2023-02-20T02:37:43.003Z,6.90
2023-02-20T02:40:49.139Z,6.67
2023-02-20T02:43:16.498Z,6.90
2023-02-20T02:46:15.371Z,7.87
2023-02-20T02:48:51.535Z,7.57
2023-02-20T02:51:26.621Z,7.33
2023-02-20T02:54:13.036Z,7.67
2023-02-20T02:56:45.438Z,6.97
2023-02-20T02:59:21.052Z,6.87
2023-02-20T03:01:54.603Z,7.80
2023-02-20T03:04:30.516Z,7.77
2023-02-20T03:07:04.215Z,7.90
2023-02-20T03:09:36.325Z,7.00
2023-02-20T03:12:06.751Z,7.07
2023-02-20T03:15:25.007Z,7.17
2023-02-20T03:18:16.016Z,6.77
2023-02-20T03:20:48.810Z,7.30
2023-02-20T03:23:32.309Z,7.00
2023-02-20T03:26:22.519Z,6.53
2023-02-20T03:29:28.138Z,6.93
2023-02-20T03:32:19.730Z,6.63
2023-02-20T03:35:07.300Z,7.87
2023-02-20T03:37:56.842Z,6.53
2023-02-20T03:40:44.259Z,7.10
2023-02-20T03:43:28.051Z,7.10
2023-02-20T03:46:12.122Z,7.03
2023-02-20T03:49:00.524Z,6.73
2023-02-20T03:51:47.128Z,6.83
2023-02-20T03:54:14.855Z,6.13
2023-02-20T03:56:46.243Z,6.87
2023-02-20T03:59:31.323Z,8.00
2023-02-20T04:02:04.609Z,7.37
2023-02-20T04:04:52.576Z,7.00
2023-02-20T04:07:28.020Z,6.97
2023-02-20T04:09:59.641Z,7.27
2023-02-20T04:12:31.279Z,6.10
2023-02-20T04:15:00.797Z,7.03
2023-02-20T04:17:32.652Z,7.37
2023-02-20T04:20:00.021Z,7.77
2023-02-20T04:22:32.234Z,6.83
2023-02-20T04:25:03.379Z,7.03
2023-02-20T04:27:32.644Z,7.53
2023-02-20T04:30:00.137Z,6.40
2023-02-20T04:32:27.670Z,7.17
2023-02-20T04:34:55.031Z,7.30
2023-02-20T04:37:22.379Z,6.80
2023-02-20T04:39:49.808Z,7.87
2023-02-20T04:42:17.372Z,7.80
2023-02-20T04:44:44.869Z,7.40
2023-02-20T04:47:16.118Z,6.73
2023-02-20T04:49:44.927Z,6.80
2023-02-20T04:52:12.296Z,7.17
2023-02-20T04:54:39.857Z,7.20
2023-02-20T04:57:07.351Z,7.43
2023-02-20T04:59:34.769Z,7.60
2023-02-20T05:02:02.248Z,7.70
2023-02-20T05:04:29.727Z,7.37
2023-02-20T05:06:58.580Z,7.40
2023-02-20T05:09:26.297Z,6.90
2023-02-20T05:11:54.119Z,6.43
2023-02-20T05:14:22.083Z,6.87
2023-02-20T05:16:51.419Z,6.73
2023-02-20T05:19:19.328Z,6.50
2023-02-20T05:22:05.620Z,5.87
2023-02-20T05:24:33.019Z,6.43
2023-02-20T05:27:00.455Z,5.83
2023-02-20T05:29:27.944Z,6.20
2023-02-20T05:31:55.804Z,6.53
2023-02-20T05:34:25.963Z,6.60
2023-02-20T05:36:54.712Z,6.10
2023-02-20T05:39:22.414Z,6.77
2023-02-20T05:41:49.761Z,6.37
2023-02-20T05:44:17.122Z,6.70
2023-02-20T05:46:44.657Z,6.67
2023-02-20T05:49:12.654Z,5.70
2023-02-20T05:51:40.295Z,6.37
2023-02-20T05:54:07.667Z,6.10
2023-02-20T05:56:35.485Z,5.77
2023-02-20T05:59:03.779Z,6.30
2023-02-20T06:01:32.732Z,6.57
2023-02-20T06:04:03.560Z,5.97
2023-02-20T06:06:39.603Z,6.17
2023-02-20T06:09:11.060Z,6.20
2023-02-20T06:11:39.952Z,6.23
2023-02-20T06:14:08.406Z,5.93
2023-02-20T06:16:36.641Z,6.13
2023-02-20T06:19:05.463Z,6.10
2023-02-20T06:21:36.118Z,6.60
2023-02-20T06:24:03.962Z,6.73
2023-02-20T06:26:31.528Z,6.23
2023-02-20T06:28:59.007Z,5.77
2023-02-20T06:31:28.401Z,7.00
2023-02-20T06:33:56.059Z,6.10
2023-02-20T06:36:30.823Z,6.60
2023-02-20T06:39:00.117Z,5.97
2023-02-20T06:41:27.656Z,5.83
2023-02-20T06:43:55.052Z,5.83
2023-02-20T06:46:23.116Z,6.53
2023-02-20T06:48:53.311Z,7.10
2023-02-20T06:51:22.554Z,6.23
2023-02-20T06:53:50.327Z,6.47
2023-02-20T06:56:22.826Z,6.80
2023-02-20T06:58:52.009Z,6.27
2023-02-20T07:01:21.314Z,7.70
2023-02-20T07:03:50.175Z,7.43
2023-02-20T07:06:18.068Z,8.40
2023-02-20T07:08:45.421Z,9.03
2023-02-20T07:11:13.543Z,8.67
2023-02-20T07:13:41.055Z,7.03
2023-02-20T07:16:08.749Z,6.27
2023-02-20T07:18:36.337Z,5.77
2023-02-20T07:21:04.029Z,6.90
2023-02-20T07:23:31.662Z,7.53
2023-02-20T07:25:59.020Z,7.97
2023-02-20T07:28:26.471Z,7.93
2023-02-20T07:30:53.966Z,7.20
2023-02-20T07:33:21.451Z,7.83
2023-02-20T07:35:48.900Z,8.70
2023-02-20T07:38:16.359Z,8.87
2023-02-20T07:40:43.822Z,10.10
2023-02-20T07:43:11.764Z,9.07
2023-02-20T07:45:39.944Z,10.23
2023-02-20T07:48:07.906Z,9.23
2023-02-20T07:50:35.367Z,9.90
2023-02-20T07:53:03.145Z,9.33
2023-02-20T07:55:31.003Z,10.00
2023-02-20T07:57:59.319Z,10.73
2023-02-20T08:00:28.118Z,10.27
2023-02-20T08:02:55.753Z,10.67
2023-02-20T08:05:23.356Z,9.10
2023-02-20T08:07:51.881Z,8.83
2023-02-20T08:10:23.602Z,9.90
2023-02-20T08:12:52.686Z,10.17
2023-02-20T08:15:22.214Z,10.37
2023-02-20T08:17:52.320Z,10.53
2023-02-20T08:20:21.710Z,9.97
2023-02-20T08:22:50.661Z,11.00
2023-02-20T08:25:19.276Z,10.90
2023-02-20T08:27:49.695Z,10.03
2023-02-20T08:30:24.376Z,10.30
2023-02-20T08:32:53.220Z,9.63
2023-02-20T08:35:27.105Z,10.83
2023-02-20T08:37:55.003Z,10.67
2023-02-20T08:40:22.563Z,11.20
2023-02-20T08:42:50.750Z,10.27
2023-02-20T08:45:18.324Z,11.93
2023-02-20T08:47:45.645Z,11.17
2023-02-20T08:50:13.250Z,12.00
2023-02-20T08:52:43.690Z,11.80
2023-02-20T08:55:12.093Z,11.83
2023-02-20T08:57:42.554Z,11.80
2023-02-20T09:00:10.825Z,11.17
2023-02-20T09:02:38.196Z,12.57
2023-02-20T09:05:05.925Z,11.67
2023-02-20T09:07:35.109Z,12.47
2023-02-20T09:10:02.467Z,12.73
2023-02-20T09:12:31.128Z,12.80
2023-02-20T09:15:00.712Z,11.33
2023-02-20T09:17:29.226Z,12.97
2023-02-20T09:19:56.881Z,11.27
2023-02-20T09:22:25.462Z,12.20
2023-02-20T09:24:54.010Z,11.67
2023-02-20T09:27:21.650Z,12.60
2023-02-20T09:29:49.225Z,12.60
2023-02-20T09:32:17.087Z,11.83
2023-02-20T09:34:45.548Z,12.03
2023-02-20T09:37:13.281Z,12.07
2023-02-20T09:39:41.141Z,11.10
2023-02-20T09:42:36.537Z,10.97
2023-02-20T09:45:12.874Z,11.20
2023-02-20T09:47:58.506Z,10.43
2023-02-20T09:50:49.544Z,9.90
2023-02-20T09:53:38.130Z,10.63
2023-02-20T09:56:11.778Z,10.50
2023-02-20T09:58:53.642Z,9.67
2023-02-20T10:01:23.277Z,8.23
2023-02-20T10:03:57.761Z,7.90
2023-02-20T10:06:32.027Z,8.77
2023-02-20T10:09:01.062Z,8.97
2023-02-20T10:11:58.675Z,8.00
2023-02-20T10:14:46.322Z,6.80
2023-02-20T10:17:21.351Z,7.13
2023-02-20T10:20:10.952Z,7.37
2023-02-20T10:23:02.772Z,5.93
2023-02-20T10:25:35.117Z,6.77
2023-02-20T10:28:07.964Z,7.30
2023-02-20T10:30:38.417Z,7.47
2023-02-20T10:33:32.316Z,7.60
2023-02-20T10:36:31.118Z,7.07
2023-02-20T10:39:07.356Z,6.70
2023-02-20T10:42:09.393Z,6.93
2023-02-20T10:44:52.153Z,7.60
2023-02-20T10:47:44.973Z,6.53
2023-02-20T10:50:22.770Z,7.50
2023-02-20T10:53:14.539Z,6.47
2023-02-20T10:55:55.609Z,6.67
2023-02-20T10:58:36.555Z,7.60
2023-02-20T11:01:11.172Z,7.33
2023-02-20T11:03:47.644Z,5.67
2023-02-20T11:06:20.337Z,5.37
2023-02-20T11:08:47.847Z,6.60
2023-02-20T11:11:28.112Z,6.77
2023-02-20T11:13:55.600Z,6.17
2023-02-20T11:16:51.761Z,6.60
2023-02-20T11:19:41.745Z,6.53
2023-02-20T11:22:10.052Z,6.17
2023-02-20T11:24:38.851Z,5.73
2023-02-20T11:27:24.619Z,5.93
2023-02-20T11:30:16.616Z,6.00
2023-02-20T11:32:45.184Z,5.03
2023-02-20T11:35:18.945Z,5.83
2023-02-20T11:37:55.203Z,6.93
2023-02-20T11:40:32.364Z,6.73
2023-02-20T11:43:20.795Z,8.30
2023-02-20T11:45:48.397Z,6.53
2023-02-20T11:48:21.001Z,6.63
2023-02-20T11:50:48.632Z,7.47
2023-02-20T11:53:27.213Z,6.90
2023-02-20T11:56:16.236Z,8.80
2023-02-20T11:58:45.344Z,6.93
2023-02-20T12:01:34.581Z,6.60
2023-02-20T12:04:02.122Z,8.27
2023-02-20T12:06:41.716Z,6.97
2023-02-20T12:09:19.114Z,6.17
2023-02-20T12:11:47.484Z,7.10
2023-02-20T12:14:15.828Z,6.90
2023-02-20T12:17:01.217Z,6.93
2023-02-20T12:19:44.501Z,7.00
2023-02-20T12:22:30.811Z,5.00
2023-02-20T12:25:16.929Z,4.90
2023-02-20T12:28:29.688Z,5.07
2023-02-20T12:31:30.333Z,6.83
2023-02-20T12:34:04.743Z,6.27
2023-02-20T12:36:36.046Z,5.33
2023-02-20T12:39:37.131Z,7.30
2023-02-20T12:42:22.526Z,6.80
2023-02-20T12:45:20.047Z,5.87
2023-02-20T12:47:51.303Z,7.00
2023-02-20T12:50:45.381Z,4.70
2023-02-20T12:53:15.573Z,6.47
2023-02-20T12:56:08.108Z,4.77
2023-02-20T12:58:58.210Z,6.90
2023-02-20T13:01:38.906Z,6.77
2023-02-20T13:04:55.165Z,6.30
2023-02-20T13:07:26.495Z,6.93
2023-02-20T13:10:00.043Z,7.03
2023-02-20T13:12:27.719Z,6.27
2023-02-20T13:15:10.082Z,3.77
2023-02-20T13:17:55.396Z,3.90
2023-02-20T13:20:28.675Z,6.33
2023-02-20T13:23:05.300Z,7.77
2023-02-20T13:25:42.543Z,3.47
2023-02-20T13:28:13.075Z,6.33
2023-02-20T13:30:41.478Z,6.80
2023-02-20T13:33:23.246Z,6.17
2023-02-20T13:35:56.922Z,4.63
2023-02-20T13:38:27.159Z,5.80
2023-02-20T13:40:59.029Z,4.87
2023-02-20T13:43:29.589Z,3.47
2023-02-20T13:46:17.928Z,5.47
2023-02-20T13:48:48.058Z,5.30
2023-02-20T13:51:15.749Z,6.03
2023-02-20T13:53:45.857Z,5.77
2023-02-20T13:56:21.566Z,4.30
2023-02-20T13:58:50.796Z,5.77
2023-02-20T14:01:18.463Z,5.87
2023-02-20T14:03:46.002Z,5.40
2023-02-20T14:06:19.325Z,3.77
2023-02-20T14:08:49.225Z,4.37
2023-02-20T14:11:33.867Z,4.30
2023-02-20T14:14:19.946Z,3.43
2023-02-20T14:16:47.350Z,4.40
2023-02-20T14:19:28.087Z,4.70
2023-02-20T14:21:55.709Z,4.53
2023-02-20T14:24:27.230Z,3.97
2023-02-20T14:26:59.618Z,2.73
2023-02-20T14:29:31.925Z,4.03
2023-02-20T14:32:01.678Z,4.23
2023-02-20T14:34:37.881Z,4.20
2023-02-20T14:37:08.028Z,3.70
2023-02-20T14:39:44.530Z,3.37
2023-02-20T14:42:18.848Z,3.17
2023-02-20T14:45:08.251Z,2.77
2023-02-20T14:47:38.329Z,4.03
2023-02-20T14:50:38.939Z,3.67
2023-02-20T14:53:20.946Z,2.07
2023-02-20T14:55:51.676Z,2.63
2023-02-20T14:58:23.542Z,4.10
2023-02-20T15:00:53.627Z,4.30
2023-02-20T15:03:31.432Z,1.27
2023-02-20T15:06:04.425Z,3.80
2023-02-20T15:08:38.017Z,4.60
2023-02-20T15:11:12.175Z,4.77
2023-02-20T15:13:43.524Z,3.73
2023-02-20T15:16:26.548Z,3.53
2023-02-20T15:18:54.990Z,4.23
2023-02-20T15:21:35.749Z,3.80
2023-02-20T15:24:30.920Z,4.53
2023-02-20T15:27:19.643Z,4.43
2023-02-20T15:29:47.647Z,4.60
2023-02-20T15:32:17.829Z,4.50
2023-02-20T15:34:49.425Z,4.07
2023-02-20T15:37:38.094Z,2.93
2023-02-20T15:40:37.203Z,4.00
2023-02-20T15:43:24.024Z,2.07
2023-02-20T15:45:57.818Z,3.40
2023-02-20T15:48:25.292Z,4.70
2023-02-20T15:50:53.478Z,3.27
2023-02-20T15:53:28.468Z,4.20
2023-02-20T15:55:57.373Z,3.33
2023-02-20T15:58:33.539Z,1.93
2023-02-20T16:01:03.050Z,3.67
2023-02-20T16:03:41.778Z,4.23
2023-02-20T16:06:20.001Z,3.83
2023-02-20T16:08:48.037Z,3.60
2023-02-20T16:11:15.686Z,4.47
2023-02-20T16:13:46.590Z,3.57
2023-02-20T16:16:24.397Z,3.37
2023-02-20T16:18:55.980Z,4.57
2023-02-20T16:21:24.560Z,5.27
2023-02-20T16:23:52.727Z,4.00
2023-02-20T16:26:25.620Z,3.57
2023-02-20T16:28:58.367Z,4.50
2023-02-20T16:31:53.778Z,4.97
2023-02-20T16:34:25.716Z,2.63
2023-02-20T16:36:53.834Z,1.23
2023-02-20T16:39:26.874Z,3.43
2023-02-20T16:42:00.429Z,4.67
2023-02-20T16:44:39.313Z,3.93
2023-02-20T16:47:13.809Z,3.47
2023-02-20T16:49:41.183Z,3.07
2023-02-20T16:52:24.368Z,3.90
2023-02-20T16:54:51.804Z,2.07
2023-02-20T16:57:23.687Z,4.87
2023-02-20T17:00:01.306Z,4.63
2023-02-20T17:02:32.493Z,3.73
2023-02-20T17:05:01.142Z,3.37
2023-02-20T17:07:30.454Z,2.70
2023-02-20T17:09:58.161Z,3.20
2023-02-20T17:12:26.257Z,3.70
2023-02-20T17:14:54.295Z,4.73
2023-02-20T17:17:22.276Z,5.30
2023-02-20T17:19:53.281Z,4.57
2023-02-20T17:22:21.734Z,5.40
2023-02-20T17:24:49.158Z,4.77
2023-02-20T17:27:17.018Z,4.37
2023-02-20T17:29:46.206Z,5.10
2023-02-20T17:32:14.960Z,5.87
2023-02-20T17:34:42.995Z,3.57
2023-02-20T17:37:11.051Z,3.97
2023-02-20T17:39:39.281Z,5.33
2023-02-20T17:42:07.193Z,3.73
2023-02-20T17:44:35.050Z,3.77
2023-02-20T17:47:02.538Z,3.10
2023-02-20T17:49:31.030Z,6.13
2023-02-20T17:51:59.365Z,4.57
2023-02-20T17:54:29.180Z,5.97
2023-02-20T17:56:56.742Z,6.77
2023-02-20T17:59:24.812Z,5.20
2023-02-20T18:01:52.286Z,2.70
2023-02-20T18:04:21.309Z,6.23
2023-02-20T18:06:49.564Z,4.83
2023-02-20T18:09:18.603Z,5.10
2023-02-20T18:11:46.582Z,5.47
2023-02-20T18:14:14.499Z,5.30
2023-02-20T18:16:42.521Z,3.60
2023-02-20T18:19:13.892Z,4.67
2023-02-20T18:21:43.120Z,4.60
2023-02-20T18:24:11.152Z,4.07
2023-02-20T18:26:38.982Z,4.47
2023-02-20T18:29:06.475Z,3.90
2023-02-20T18:31:34.644Z,5.53
2023-02-20T18:34:02.739Z,3.90
2023-02-20T18:36:30.235Z,5.23
2023-02-20T18:38:57.988Z,5.20
2023-02-20T18:41:25.722Z,5.97
2023-02-20T18:43:53.593Z,3.77
2023-02-20T18:46:35.823Z,4.80
2023-02-20T18:49:04.223Z,5.23
2023-02-20T18:51:36.967Z,4.50
2023-02-20T18:54:05.939Z,5.10
2023-02-20T18:56:33.586Z,4.77
2023-02-20T18:59:02.651Z,5.33
2023-02-20T19:01:29.998Z,5.63
2023-02-20T19:03:57.629Z,5.57
2023-02-20T19:06:26.721Z,4.57
2023-02-20T19:08:54.668Z,5.43
2023-02-20T19:11:22.616Z,4.63
2023-02-20T19:13:49.957Z,5.40
2023-02-20T19:16:17.669Z,4.63
2023-02-20T19:18:50.405Z,4.43
2023-02-20T19:21:19.349Z,4.77
2023-02-20T19:23:47.988Z,4.93
2023-02-20T19:26:15.899Z,5.33
2023-02-20T19:28:43.538Z,4.37
2023-02-20T19:31:12.677Z,5.27
2023-02-20T19:33:41.142Z,5.77
2023-02-20T19:36:10.403Z,3.20
2023-02-20T19:38:39.387Z,5.30
2023-02-20T19:41:06.939Z,5.60
2023-02-20T19:43:34.692Z,5.67
2023-02-20T19:46:02.113Z,5.90
2023-02-20T19:48:29.637Z,5.83
2023-02-20T19:50:57.084Z,4.60
2023-02-20T19:53:24.677Z,6.10
2023-02-20T19:55:54.657Z,4.43
2023-02-20T19:58:22.520Z,4.87
2023-02-20T20:00:49.928Z,5.93
2023-02-20T20:03:18.266Z,5.20
2023-02-20T20:05:46.228Z,5.53
2023-02-20T20:08:13.867Z,5.17
2023-02-20T20:10:41.154Z,5.73
2023-02-20T20:13:09.237Z,3.23
2023-02-20T20:15:37.190Z,5.77
2023-02-20T20:18:04.955Z,6.73
2023-02-20T20:20:33.196Z,6.10
2023-02-20T20:23:05.125Z,6.67
2023-02-20T20:25:33.212Z,6.27
2023-02-20T20:28:02.869Z,8.07
2023-02-20T20:30:32.165Z,9.40
2023-02-20T20:33:00.430Z,9.10
2023-02-20T20:35:29.625Z,9.47
2023-02-20T20:37:57.937Z,9.67
2023-02-20T20:40:26.403Z,9.53
2023-02-20T20:42:54.111Z,9.13
2023-02-20T20:45:23.117Z,9.43
2023-02-20T20:47:50.862Z,8.60
2023-02-20T20:50:23.820Z,8.57
2023-02-20T20:52:51.230Z,9.80
2023-02-20T20:55:18.592Z,8.57
2023-02-20T20:57:45.979Z,9.63
2023-02-20T21:00:23.019Z,8.57
2023-02-20T21:02:50.682Z,9.70
2023-02-20T21:05:20.194Z,9.87
2023-02-20T21:07:48.075Z,8.67
2023-02-20T21:10:15.686Z,9.70
2023-02-20T21:12:43.248Z,9.87
2023-02-20T21:15:11.972Z,10.23
2023-02-20T21:17:41.190Z,11.50
2023-02-20T21:20:14.725Z,10.33
2023-02-20T21:22:42.597Z,11.00
2023-02-20T21:25:10.218Z,8.63
2023-02-20T21:27:37.748Z,10.20
2023-02-20T21:30:06.602Z,10.23
2023-02-20T21:32:34.096Z,9.80
2023-02-20T21:35:01.534Z,10.40
2023-02-20T21:37:28.944Z,10.80
2023-02-20T21:39:56.418Z,11.07
2023-02-20T21:42:42.837Z,9.33
2023-02-20T21:45:10.481Z,10.03
2023-02-20T21:47:37.886Z,11.73
2023-02-20T21:50:07.528Z,11.30
2023-02-20T21:52:38.066Z,10.37
2023-02-20T21:55:12.014Z,10.53
2023-02-20T21:57:39.406Z,11.10
2023-02-20T22:00:09.539Z,10.27
2023-02-20T22:02:36.962Z,10.17
2023-02-20T22:05:05.010Z,11.13
2023-02-20T22:07:51.172Z,10.43
2023-02-20T22:10:37.318Z,10.33
2023-02-20T22:13:23.863Z,9.83
2023-02-20T22:16:10.181Z,10.03
2023-02-20T22:18:56.149Z,10.17
2023-02-20T22:21:43.896Z,10.27
2023-02-20T22:24:38.163Z,11.40
2023-02-20T22:27:29.346Z,9.27
2023-02-20T22:30:15.877Z,10.17
2023-02-20T22:33:01.948Z,9.57
2023-02-20T22:35:48.463Z,9.87
2023-02-20T22:38:34.526Z,9.40
2023-02-20T22:41:20.532Z,10.37
2023-02-20T22:44:06.430Z,9.70
2023-02-20T22:46:52.681Z,9.67
2023-02-20T22:49:39.341Z,8.67
2023-02-20T22:52:25.539Z,10.37
2023-02-20T22:55:11.712Z,9.07
2023-02-20T22:57:57.890Z,8.27
2023-02-20T23:00:43.905Z,10.27
2023-02-20T23:03:30.208Z,8.87
2023-02-20T23:06:19.035Z,8.50
2023-02-20T23:09:09.677Z,8.40
2023-02-20T23:11:57.022Z,10.33
2023-02-20T23:14:43.325Z,8.87
2023-02-20T23:17:36.237Z,8.07
2023-02-20T23:20:31.134Z,6.67
2023-02-20T23:23:17.424Z,8.63
2023-02-20T23:26:03.482Z,10.10
2023-02-20T23:28:49.914Z,9.23
2023-02-20T23:31:36.746Z,10.47
2023-02-20T23:34:23.324Z,8.93
2023-02-20T23:37:10.824Z,10.73
2023-02-20T23:39:57.235Z,10.90
2023-02-20T23:42:43.327Z,8.97
2023-02-20T23:45:29.464Z,10.00
2023-02-20T23:48:15.443Z,9.50
2023-02-20T23:51:01.487Z,10.10
2023-02-20T23:53:47.910Z,9.67
2023-02-20T23:56:33.995Z,6.07
2023-02-20T23:59:20.096Z,10.17
